sensor_id;sensor_type;location;lat;lon;timestamp;P1;durP1;ratioP1;P2;durP2;ratioP2
19651;SDS011;9974;52.146;14.668;2023-06-14T00:01:49;4.45;;;2.13;;
19651;SDS011;9974;52.146;14.668;2023-06-14T00:04:16;5.68;;;2.47;;
19651;SDS011;9974;52.146;14.668;2023-06-14T00:06:41;3.17;;;2.10;;
19651;SDS011;9974;52.146;14.668;2023-06-14T00:09:10;3.58;;;2.00;;
19651;SDS011;9974;52.146;14.668;2023-06-14T00:11:38;3.75;;;2.25;;
19651;SDS011;9974;52.146;14.668;2023-06-14T00:14:06;3.08;;;2.00;;
19651;SDS011;9974;52.146;14.668;2023-06-14T00:16:32;4.47;;;2.58;;
19651;SDS011;9974;52.146;14.668;2023-06-14T00:18:59;3.88;;;2.38;;
19651;SDS011;9974;52.146;14.668;2023-06-14T00:21:28;5.35;;;2.60;;
19651;SDS011;9974;52.146;14.668;2023-06-14T00:23:54;4.82;;;2.30;;
19651;SDS011;9974;52.146;14.668;2023-06-14T00:26:21;6.10;;;3.20;;
19651;SDS011;9974;52.146;14.668;2023-06-14T00:28:46;5.65;;;2.35;;
19651;SDS011;9974;52.146;14.668;2023-06-14T00:31:12;6.07;;;2.33;;
19651;SDS011;9974;52.146;14.668;2023-06-14T00:33:38;3.83;;;2.33;;
19651;SDS011;9974;52.146;14.668;2023-06-14T00:36:04;4.00;;;2.33;;
19651;SDS011;9974;52.146;14.668;2023-06-14T00:38:30;4.22;;;2.55;;
19651;SDS011;9974;52.146;14.668;2023-06-14T00:40:57;4.50;;;2.58;;
19651;SDS011;9974;52.146;14.668;2023-06-14T00:43:23;3.05;;;2.38;;
19651;SDS011;9974;52.146;14.668;2023-06-14T00:45:48;4.45;;;2.50;;
19651;SDS011;9974;52.146;14.668;2023-06-14T00:48:16;4.63;;;2.38;;
19651;SDS011;9974;52.146;14.668;2023-06-14T00:50:42;11.18;;;2.75;;
19651;SDS011;9974;52.146;14.668;2023-06-14T00:53:10;4.22;;;2.53;;
19651;SDS011;9974;52.146;14.668;2023-06-14T00:55:37;3.40;;;1.98;;
19651;SDS011;9974;52.146;14.668;2023-06-14T00:58:03;2.97;;;2.28;;
19651;SDS011;9974;52.146;14.668;2023-06-14T01:00:29;3.72;;;2.40;;
19651;SDS011;9974;52.146;14.668;2023-06-14T01:02:54;3.70;;;2.38;;
19651;SDS011;9974;52.146;14.668;2023-06-14T01:05:21;4.22;;;2.75;;
19651;SDS011;9974;52.146;14.668;2023-06-14T01:07:51;5.20;;;2.63;;
19651;SDS011;9974;52.146;14.668;2023-06-14T01:10:40;3.55;;;2.42;;
19651;SDS011;9974;52.146;14.668;2023-06-14T01:13:32;4.38;;;2.75;;
19651;SDS011;9974;52.146;14.668;2023-06-14T01:16:02;5.75;;;2.53;;
19651;SDS011;9974;52.146;14.668;2023-06-14T01:18:28;4.22;;;3.00;;
19651;SDS011;9974;52.146;14.668;2023-06-14T01:20:54;5.18;;;2.45;;
19651;SDS011;9974;52.146;14.668;2023-06-14T01:23:21;4.88;;;3.10;;
19651;SDS011;9974;52.146;14.668;2023-06-14T01:25:49;4.47;;;2.63;;
19651;SDS011;9974;52.146;14.668;2023-06-14T01:28:18;4.53;;;2.80;;
19651;SDS011;9974;52.146;14.668;2023-06-14T01:30:46;6.80;;;2.45;;
19651;SDS011;9974;52.146;14.668;2023-06-14T01:33:20;6.43;;;3.72;;
19651;SDS011;9974;52.146;14.668;2023-06-14T01:35:48;4.22;;;2.90;;
19651;SDS011;9974;52.146;14.668;2023-06-14T01:38:17;5.65;;;3.28;;
19651;SDS011;9974;52.146;14.668;2023-06-14T01:40:45;4.57;;;2.83;;
19651;SDS011;9974;52.146;14.668;2023-06-14T01:43:13;5.03;;;3.25;;
19651;SDS011;9974;52.146;14.668;2023-06-14T01:45:40;5.47;;;3.22;;
19651;SDS011;9974;52.146;14.668;2023-06-14T01:48:07;5.35;;;3.55;;
19651;SDS011;9974;52.146;14.668;2023-06-14T01:50:33;5.43;;;3.17;;
19651;SDS011;9974;52.146;14.668;2023-06-14T01:52:59;5.88;;;3.88;;
19651;SDS011;9974;52.146;14.668;2023-06-14T01:55:25;4.82;;;3.05;;
19651;SDS011;9974;52.146;14.668;2023-06-14T01:57:52;6.25;;;3.20;;
19651;SDS011;9974;52.146;14.668;2023-06-14T02:00:18;4.60;;;2.83;;
19651;SDS011;9974;52.146;14.668;2023-06-14T02:02:46;4.45;;;3.03;;
19651;SDS011;9974;52.146;14.668;2023-06-14T02:05:12;4.35;;;2.85;;
19651;SDS011;9974;52.146;14.668;2023-06-14T02:07:38;5.75;;;3.63;;
19651;SDS011;9974;52.146;14.668;2023-06-14T02:10:04;5.53;;;3.72;;
19651;SDS011;9974;52.146;14.668;2023-06-14T02:12:31;5.80;;;3.95;;
19651;SDS011;9974;52.146;14.668;2023-06-14T02:14:56;6.78;;;3.25;;
19651;SDS011;9974;52.146;14.668;2023-06-14T02:17:23;6.10;;;3.33;;
19651;SDS011;9974;52.146;14.668;2023-06-14T02:19:49;6.28;;;3.63;;
19651;SDS011;9974;52.146;14.668;2023-06-14T02:22:16;5.07;;;3.40;;
19651;SDS011;9974;52.146;14.668;2023-06-14T02:24:42;6.22;;;3.65;;
19651;SDS011;9974;52.146;14.668;2023-06-14T02:27:08;5.70;;;3.47;;
19651;SDS011;9974;52.146;14.668;2023-06-14T02:29:37;8.52;;;4.07;;
19651;SDS011;9974;52.146;14.668;2023-06-14T02:32:04;5.32;;;3.83;;
19651;SDS011;9974;52.146;14.668;2023-06-14T02:34:32;7.40;;;4.22;;
19651;SDS011;9974;52.146;14.668;2023-06-14T02:36:59;6.40;;;3.72;;
19651;SDS011;9974;52.146;14.668;2023-06-14T02:39:25;8.95;;;3.58;;
19651;SDS011;9974;52.146;14.668;2023-06-14T02:41:51;5.05;;;3.67;;
19651;SDS011;9974;52.146;14.668;2023-06-14T02:44:17;4.78;;;3.03;;
19651;SDS011;9974;52.146;14.668;2023-06-14T02:46:43;6.65;;;3.90;;
19651;SDS011;9974;52.146;14.668;2023-06-14T02:49:10;6.93;;;4.00;;
19651;SDS011;9974;52.146;14.668;2023-06-14T02:51:38;8.88;;;3.60;;
19651;SDS011;9974;52.146;14.668;2023-06-14T02:54:05;6.70;;;4.13;;
19651;SDS011;9974;52.146;14.668;2023-06-14T02:56:31;7.13;;;4.18;;
19651;SDS011;9974;52.146;14.668;2023-06-14T02:58:56;6.88;;;4.13;;
19651;SDS011;9974;52.146;14.668;2023-06-14T03:01:24;6.80;;;4.00;;
19651;SDS011;9974;52.146;14.668;2023-06-14T03:03:59;6.05;;;3.63;;
19651;SDS011;9974;52.146;14.668;2023-06-14T03:06:25;5.68;;;3.92;;
19651;SDS011;9974;52.146;14.668;2023-06-14T03:08:54;6.65;;;3.78;;
19651;SDS011;9974;52.146;14.668;2023-06-14T03:11:25;5.88;;;4.07;;
19651;SDS011;9974;52.146;14.668;2023-06-14T03:13:51;5.40;;;3.88;;
19651;SDS011;9974;52.146;14.668;2023-06-14T03:16:18;7.90;;;4.80;;
19651;SDS011;9974;52.146;14.668;2023-06-14T03:18:44;7.13;;;4.65;;
19651;SDS011;9974;52.146;14.668;2023-06-14T03:21:10;8.50;;;4.53;;
19651;SDS011;9974;52.146;14.668;2023-06-14T03:23:36;8.23;;;4.38;;
19651;SDS011;9974;52.146;14.668;2023-06-14T03:26:02;6.28;;;3.97;;
19651;SDS011;9974;52.146;14.668;2023-06-14T03:28:28;7.28;;;4.43;;
19651;SDS011;9974;52.146;14.668;2023-06-14T03:30:54;6.72;;;4.35;;
19651;SDS011;9974;52.146;14.668;2023-06-14T03:33:20;6.05;;;3.67;;
19651;SDS011;9974;52.146;14.668;2023-06-14T03:35:46;6.32;;;3.83;;
19651;SDS011;9974;52.146;14.668;2023-06-14T03:38:11;6.32;;;4.13;;
19651;SDS011;9974;52.146;14.668;2023-06-14T03:40:37;8.65;;;4.07;;
19651;SDS011;9974;52.146;14.668;2023-06-14T03:43:04;7.85;;;3.92;;
19651;SDS011;9974;52.146;14.668;2023-06-14T03:45:30;5.15;;;3.38;;
19651;SDS011;9974;52.146;14.668;2023-06-14T03:47:56;6.97;;;4.55;;
19651;SDS011;9974;52.146;14.668;2023-06-14T03:50:22;5.72;;;3.58;;
19651;SDS011;9974;52.146;14.668;2023-06-14T03:52:48;6.65;;;3.90;;
19651;SDS011;9974;52.146;14.668;2023-06-14T03:55:15;9.10;;;4.18;;
19651;SDS011;9974;52.146;14.668;2023-06-14T03:57:41;6.82;;;4.10;;
19651;SDS011;9974;52.146;14.668;2023-06-14T04:00:09;7.07;;;4.32;;
19651;SDS011;9974;52.146;14.668;2023-06-14T04:02:37;5.78;;;3.53;;
19651;SDS011;9974;52.146;14.668;2023-06-14T04:05:03;8.85;;;4.97;;
19651;SDS011;9974;52.146;14.668;2023-06-14T04:07:33;7.45;;;4.65;;
19651;SDS011;9974;52.146;14.668;2023-06-14T04:10:05;6.45;;;4.30;;
19651;SDS011;9974;52.146;14.668;2023-06-14T04:12:33;7.50;;;4.78;;
19651;SDS011;9974;52.146;14.668;2023-06-14T04:14:58;7.95;;;4.32;;
19651;SDS011;9974;52.146;14.668;2023-06-14T04:17:25;6.85;;;4.30;;
19651;SDS011;9974;52.146;14.668;2023-06-14T04:19:51;5.85;;;4.18;;
19651;SDS011;9974;52.146;14.668;2023-06-14T04:22:18;7.97;;;4.88;;
19651;SDS011;9974;52.146;14.668;2023-06-14T04:24:44;5.32;;;4.00;;
19651;SDS011;9974;52.146;14.668;2023-06-14T04:27:11;6.55;;;4.53;;
19651;SDS011;9974;52.146;14.668;2023-06-14T04:29:36;8.57;;;4.80;;
19651;SDS011;9974;52.146;14.668;2023-06-14T04:32:04;7.53;;;4.65;;
19651;SDS011;9974;52.146;14.668;2023-06-14T04:34:30;14.05;;;4.72;;
19651;SDS011;9974;52.146;14.668;2023-06-14T04:36:58;6.40;;;4.30;;
19651;SDS011;9974;52.146;14.668;2023-06-14T04:39:26;5.55;;;3.63;;
19651;SDS011;9974;52.146;14.668;2023-06-14T04:41:52;5.65;;;3.83;;
19651;SDS011;9974;52.146;14.668;2023-06-14T04:44:21;5.95;;;4.15;;
19651;SDS011;9974;52.146;14.668;2023-06-14T04:46:49;7.38;;;3.72;;
19651;SDS011;9974;52.146;14.668;2023-06-14T04:49:15;6.40;;;4.05;;
19651;SDS011;9974;52.146;14.668;2023-06-14T04:51:42;4.40;;;3.38;;
19651;SDS011;9974;52.146;14.668;2023-06-14T04:54:09;9.57;;;4.50;;
19651;SDS011;9974;52.146;14.668;2023-06-14T04:56:39;6.18;;;3.65;;
19651;SDS011;9974;52.146;14.668;2023-06-14T04:59:08;6.90;;;4.60;;
19651;SDS011;9974;52.146;14.668;2023-06-14T05:01:34;7.55;;;4.45;;
19651;SDS011;9974;52.146;14.668;2023-06-14T05:04:00;8.40;;;5.15;;
19651;SDS011;9974;52.146;14.668;2023-06-14T05:06:26;8.13;;;5.65;;
19651;SDS011;9974;52.146;14.668;2023-06-14T05:08:53;7.15;;;4.65;;
19651;SDS011;9974;52.146;14.668;2023-06-14T05:11:19;9.85;;;5.32;;
19651;SDS011;9974;52.146;14.668;2023-06-14T05:13:45;6.47;;;4.60;;
19651;SDS011;9974;52.146;14.668;2023-06-14T05:16:11;10.35;;;4.38;;
19651;SDS011;9974;52.146;14.668;2023-06-14T05:18:37;8.05;;;4.95;;
19651;SDS011;9974;52.146;14.668;2023-06-14T05:21:05;9.63;;;5.25;;
19651;SDS011;9974;52.146;14.668;2023-06-14T05:23:31;5.93;;;4.05;;
19651;SDS011;9974;52.146;14.668;2023-06-14T05:25:56;6.32;;;4.22;;
19651;SDS011;9974;52.146;14.668;2023-06-14T05:28:23;8.50;;;5.38;;
19651;SDS011;9974;52.146;14.668;2023-06-14T05:30:49;8.35;;;5.55;;
19651;SDS011;9974;52.146;14.668;2023-06-14T05:33:15;7.55;;;4.88;;
19651;SDS011;9974;52.146;14.668;2023-06-14T05:35:41;8.00;;;5.00;;
19651;SDS011;9974;52.146;14.668;2023-06-14T05:38:07;7.88;;;5.28;;
19651;SDS011;9974;52.146;14.668;2023-06-14T05:40:33;10.50;;;5.78;;
19651;SDS011;9974;52.146;14.668;2023-06-14T05:42:59;11.45;;;5.57;;
19651;SDS011;9974;52.146;14.668;2023-06-14T05:45:25;8.60;;;5.13;;
19651;SDS011;9974;52.146;14.668;2023-06-14T05:47:51;9.30;;;5.40;;
19651;SDS011;9974;52.146;14.668;2023-06-14T05:50:19;7.32;;;5.15;;
19651;SDS011;9974;52.146;14.668;2023-06-14T05:52:45;6.82;;;4.20;;
19651;SDS011;9974;52.146;14.668;2023-06-14T05:55:11;7.68;;;4.95;;
19651;SDS011;9974;52.146;14.668;2023-06-14T05:57:37;7.97;;;4.90;;
19651;SDS011;9974;52.146;14.668;2023-06-14T06:00:03;7.63;;;4.97;;
19651;SDS011;9974;52.146;14.668;2023-06-14T06:02:39;8.45;;;5.47;;
19651;SDS011;9974;52.146;14.668;2023-06-14T06:05:08;9.35;;;4.82;;
19651;SDS011;9974;52.146;14.668;2023-06-14T06:07:35;7.50;;;4.78;;
19651;SDS011;9974;52.146;14.668;2023-06-14T06:10:01;7.15;;;4.70;;
19651;SDS011;9974;52.146;14.668;2023-06-14T06:12:27;7.00;;;5.10;;
19651;SDS011;9974;52.146;14.668;2023-06-14T06:14:53;6.80;;;4.72;;
19651;SDS011;9974;52.146;14.668;2023-06-14T06:17:20;12.63;;;5.03;;
19651;SDS011;9974;52.146;14.668;2023-06-14T06:19:46;9.95;;;5.38;;
19651;SDS011;9974;52.146;14.668;2023-06-14T06:22:12;6.47;;;4.78;;
19651;SDS011;9974;52.146;14.668;2023-06-14T06:24:38;7.65;;;4.55;;
19651;SDS011;9974;52.146;14.668;2023-06-14T06:27:04;8.73;;;5.18;;
19651;SDS011;9974;52.146;14.668;2023-06-14T06:29:32;6.30;;;4.60;;
19651;SDS011;9974;52.146;14.668;2023-06-14T06:31:58;6.95;;;5.20;;
19651;SDS011;9974;52.146;14.668;2023-06-14T06:34:24;7.63;;;4.72;;
19651;SDS011;9974;52.146;14.668;2023-06-14T06:36:50;5.97;;;4.22;;
19651;SDS011;9974;52.146;14.668;2023-06-14T06:39:16;10.57;;;4.97;;
19651;SDS011;9974;52.146;14.668;2023-06-14T06:41:42;7.07;;;4.15;;
19651;SDS011;9974;52.146;14.668;2023-06-14T06:44:08;8.18;;;4.32;;
19651;SDS011;9974;52.146;14.668;2023-06-14T06:46:37;5.03;;;3.95;;
19651;SDS011;9974;52.146;14.668;2023-06-14T06:49:06;6.50;;;4.10;;
19651;SDS011;9974;52.146;14.668;2023-06-14T06:51:32;6.25;;;4.15;;
19651;SDS011;9974;52.146;14.668;2023-06-14T06:53:57;8.18;;;4.25;;
19651;SDS011;9974;52.146;14.668;2023-06-14T06:56:23;5.57;;;3.80;;
19651;SDS011;9974;52.146;14.668;2023-06-14T06:58:49;5.57;;;3.80;;
19651;SDS011;9974;52.146;14.668;2023-06-14T07:01:16;4.95;;;3.58;;
19651;SDS011;9974;52.146;14.668;2023-06-14T07:03:42;7.45;;;3.05;;
19651;SDS011;9974;52.146;14.668;2023-06-14T07:06:08;12.80;;;3.40;;
19651;SDS011;9974;52.146;14.668;2023-06-14T07:08:35;5.07;;;3.13;;
19651;SDS011;9974;52.146;14.668;2023-06-14T07:11:00;3.83;;;2.95;;
19651;SDS011;9974;52.146;14.668;2023-06-14T07:13:27;5.18;;;2.70;;
19651;SDS011;9974;52.146;14.668;2023-06-14T07:15:54;5.45;;;3.25;;
19651;SDS011;9974;52.146;14.668;2023-06-14T07:18:22;4.13;;;2.70;;
19651;SDS011;9974;52.146;14.668;2023-06-14T07:20:48;5.93;;;3.10;;
19651;SDS011;9974;52.146;14.668;2023-06-14T07:23:15;3.38;;;2.40;;
19651;SDS011;9974;52.146;14.668;2023-06-14T07:25:40;6.38;;;3.22;;
19651;SDS011;9974;52.146;14.668;2023-06-14T07:28:06;3.78;;;2.47;;
19651;SDS011;9974;52.146;14.668;2023-06-14T07:30:32;5.40;;;2.22;;
19651;SDS011;9974;52.146;14.668;2023-06-14T07:32:58;4.28;;;2.80;;
19651;SDS011;9974;52.146;14.668;2023-06-14T07:35:24;4.95;;;2.28;;
19651;SDS011;9974;52.146;14.668;2023-06-14T07:37:50;4.65;;;2.50;;
19651;SDS011;9974;52.146;14.668;2023-06-14T07:40:16;5.07;;;2.67;;
19651;SDS011;9974;52.146;14.668;2023-06-14T07:42:41;3.58;;;2.35;;
19651;SDS011;9974;52.146;14.668;2023-06-14T07:45:07;5.88;;;2.30;;
19651;SDS011;9974;52.146;14.668;2023-06-14T07:47:33;3.42;;;2.00;;
19651;SDS011;9974;52.146;14.668;2023-06-14T07:50:00;3.63;;;2.38;;
19651;SDS011;9974;52.146;14.668;2023-06-14T07:52:25;3.58;;;2.17;;
19651;SDS011;9974;52.146;14.668;2023-06-14T07:54:51;7.22;;;2.67;;
19651;SDS011;9974;52.146;14.668;2023-06-14T07:57:17;4.20;;;2.53;;
19651;SDS011;9974;52.146;14.668;2023-06-14T07:59:45;4.10;;;2.30;;
19651;SDS011;9974;52.146;14.668;2023-06-14T08:02:11;4.25;;;2.10;;
19651;SDS011;9974;52.146;14.668;2023-06-14T08:04:37;2.67;;;1.83;;
19651;SDS011;9974;52.146;14.668;2023-06-14T08:07:03;2.70;;;1.90;;
19651;SDS011;9974;52.146;14.668;2023-06-14T08:09:28;3.25;;;1.73;;
19651;SDS011;9974;52.146;14.668;2023-06-14T08:11:54;3.83;;;2.22;;
19651;SDS011;9974;52.146;14.668;2023-06-14T08:14:21;3.05;;;1.90;;
19651;SDS011;9974;52.146;14.668;2023-06-14T08:16:47;4.65;;;1.77;;
19651;SDS011;9974;52.146;14.668;2023-06-14T08:19:13;6.63;;;2.47;;
19651;SDS011;9974;52.146;14.668;2023-06-14T08:21:41;3.22;;;2.03;;
19651;SDS011;9974;52.146;14.668;2023-06-14T08:24:08;3.60;;;2.38;;
19651;SDS011;9974;52.146;14.668;2023-06-14T08:26:37;3.90;;;2.45;;
19651;SDS011;9974;52.146;14.668;2023-06-14T08:29:04;4.45;;;2.10;;
19651;SDS011;9974;52.146;14.668;2023-06-14T08:31:31;4.57;;;1.67;;
19651;SDS011;9974;52.146;14.668;2023-06-14T08:33:58;3.08;;;1.60;;
19651;SDS011;9974;52.146;14.668;2023-06-14T08:36:24;3.63;;;2.40;;
19651;SDS011;9974;52.146;14.668;2023-06-14T08:38:50;6.53;;;1.35;;
19651;SDS011;9974;52.146;14.668;2023-06-14T08:41:20;3.03;;;1.92;;
19651;SDS011;9974;52.146;14.668;2023-06-14T08:43:48;3.47;;;2.20;;
19651;SDS011;9974;52.146;14.668;2023-06-14T08:46:14;3.92;;;2.15;;
19651;SDS011;9974;52.146;14.668;2023-06-14T08:48:46;4.30;;;2.42;;
19651;SDS011;9974;52.146;14.668;2023-06-14T08:51:14;3.33;;;2.33;;
19651;SDS011;9974;52.146;14.668;2023-06-14T08:53:43;5.28;;;2.72;;
19651;SDS011;9974;52.146;14.668;2023-06-14T08:56:10;2.60;;;1.70;;
19651;SDS011;9974;52.146;14.668;2023-06-14T08:58:44;4.03;;;1.67;;
19651;SDS011;9974;52.146;14.668;2023-06-14T09:01:13;4.63;;;1.98;;
19651;SDS011;9974;52.146;14.668;2023-06-14T09:03:41;3.50;;;2.03;;
19651;SDS011;9974;52.146;14.668;2023-06-14T09:06:08;3.95;;;2.03;;
19651;SDS011;9974;52.146;14.668;2023-06-14T09:08:38;3.92;;;1.98;;
19651;SDS011;9974;52.146;14.668;2023-06-14T09:11:08;3.42;;;1.90;;
19651;SDS011;9974;52.146;14.668;2023-06-14T09:13:40;4.25;;;2.38;;
19651;SDS011;9974;52.146;14.668;2023-06-14T09:16:06;6.03;;;2.35;;
19651;SDS011;9974;52.146;14.668;2023-06-14T09:18:34;2.63;;;1.58;;
19651;SDS011;9974;52.146;14.668;2023-06-14T09:21:06;2.47;;;1.85;;
19651;SDS011;9974;52.146;14.668;2023-06-14T09:23:33;5.72;;;1.85;;
19651;SDS011;9974;52.146;14.668;2023-06-14T09:26:15;5.03;;;2.28;;
19651;SDS011;9974;52.146;14.668;2023-06-14T09:28:45;3.92;;;1.80;;
19651;SDS011;9974;52.146;14.668;2023-06-14T09:31:16;3.58;;;2.33;;
19651;SDS011;9974;52.146;14.668;2023-06-14T09:33:46;5.60;;;2.60;;
19651;SDS011;9974;52.146;14.668;2023-06-14T09:36:18;5.30;;;1.60;;
19651;SDS011;9974;52.146;14.668;2023-06-14T09:38:55;8.15;;;1.90;;
19651;SDS011;9974;52.146;14.668;2023-06-14T09:41:34;2.72;;;1.33;;
19651;SDS011;9974;52.146;14.668;2023-06-14T09:44:08;2.13;;;1.20;;
19651;SDS011;9974;52.146;14.668;2023-06-14T09:46:37;3.28;;;1.63;;
19651;SDS011;9974;52.146;14.668;2023-06-14T09:49:03;3.20;;;2.17;;
19651;SDS011;9974;52.146;14.668;2023-06-14T09:51:30;6.22;;;1.67;;
19651;SDS011;9974;52.146;14.668;2023-06-14T09:53:59;2.65;;;1.77;;
19651;SDS011;9974;52.146;14.668;2023-06-14T09:56:32;3.92;;;1.10;;
19651;SDS011;9974;52.146;14.668;2023-06-14T09:59:04;2.33;;;1.52;;
19651;SDS011;9974;52.146;14.668;2023-06-14T10:01:32;2.97;;;1.75;;
19651;SDS011;9974;52.146;14.668;2023-06-14T10:04:01;2.92;;;1.80;;
19651;SDS011;9974;52.146;14.668;2023-06-14T10:06:30;2.38;;;1.65;;
19651;SDS011;9974;52.146;14.668;2023-06-14T10:08:57;2.80;;;1.70;;
19651;SDS011;9974;52.146;14.668;2023-06-14T10:11:27;2.65;;;1.77;;
19651;SDS011;9974;52.146;14.668;2023-06-14T10:13:57;5.63;;;1.60;;
19651;SDS011;9974;52.146;14.668;2023-06-14T10:16:24;5.53;;;1.85;;
19651;SDS011;9974;52.146;14.668;2023-06-14T10:21:58;4.03;;;2.45;;
19651;SDS011;9974;52.146;14.668;2023-06-14T10:24:32;3.58;;;2.00;;
19651;SDS011;9974;52.146;14.668;2023-06-14T10:27:09;3.28;;;1.70;;
19651;SDS011;9974;52.146;14.668;2023-06-14T10:29:35;3.08;;;1.80;;
19651;SDS011;9974;52.146;14.668;2023-06-14T10:32:26;2.72;;;1.77;;
19651;SDS011;9974;52.146;14.668;2023-06-14T10:37:31;6.93;;;2.08;;
19651;SDS011;9974;52.146;14.668;2023-06-14T10:39:58;2.47;;;1.63;;
19651;SDS011;9974;52.146;14.668;2023-06-14T10:42:27;3.40;;;1.65;;
19651;SDS011;9974;52.146;14.668;2023-06-14T10:44:57;6.30;;;1.67;;
19651;SDS011;9974;52.146;14.668;2023-06-14T10:47:27;2.30;;;1.50;;
19651;SDS011;9974;52.146;14.668;2023-06-14T10:50:07;3.28;;;1.85;;
19651;SDS011;9974;52.146;14.668;2023-06-14T10:52:39;2.55;;;1.42;;
19651;SDS011;9974;52.146;14.668;2023-06-14T11:00:16;3.03;;;1.67;;
19651;SDS011;9974;52.146;14.668;2023-06-14T11:03:08;4.45;;;1.50;;
19651;SDS011;9974;52.146;14.668;2023-06-14T11:06:14;3.78;;;1.83;;
19651;SDS011;9974;52.146;14.668;2023-06-14T11:11:41;4.15;;;2.17;;
19651;SDS011;9974;52.146;14.668;2023-06-14T11:14:08;3.05;;;1.70;;
19651;SDS011;9974;52.146;14.668;2023-06-14T11:16:34;3.58;;;1.58;;
19651;SDS011;9974;52.146;14.668;2023-06-14T11:19:01;2.15;;;1.40;;
19651;SDS011;9974;52.146;14.668;2023-06-14T11:21:28;3.10;;;1.60;;
19651;SDS011;9974;52.146;14.668;2023-06-14T11:23:56;3.80;;;1.65;;
19651;SDS011;9974;52.146;14.668;2023-06-14T11:26:26;1.90;;;1.30;;
19651;SDS011;9974;52.146;14.668;2023-06-14T11:28:57;7.40;;;2.45;;
19651;SDS011;9974;52.146;14.668;2023-06-14T11:31:24;3.95;;;1.92;;
19651;SDS011;9974;52.146;14.668;2023-06-14T11:33:53;2.63;;;1.73;;
19651;SDS011;9974;52.146;14.668;2023-06-14T11:36:20;2.25;;;1.55;;
19651;SDS011;9974;52.146;14.668;2023-06-14T11:38:46;3.03;;;1.80;;
19651;SDS011;9974;52.146;14.668;2023-06-14T11:41:12;2.58;;;1.67;;
19651;SDS011;9974;52.146;14.668;2023-06-14T11:43:39;2.90;;;1.75;;
19651;SDS011;9974;52.146;14.668;2023-06-14T11:46:12;2.35;;;1.38;;
19651;SDS011;9974;52.146;14.668;2023-06-14T11:48:41;2.38;;;1.55;;
19651;SDS011;9974;52.146;14.668;2023-06-14T11:51:07;3.05;;;1.33;;
19651;SDS011;9974;52.146;14.668;2023-06-14T11:53:33;4.30;;;1.80;;
19651;SDS011;9974;52.146;14.668;2023-06-14T11:55:59;2.42;;;1.52;;
19651;SDS011;9974;52.146;14.668;2023-06-14T11:58:25;3.80;;;1.80;;
19651;SDS011;9974;52.146;14.668;2023-06-14T12:00:52;3.25;;;2.03;;
19651;SDS011;9974;52.146;14.668;2023-06-14T12:03:22;9.18;;;1.90;;
19651;SDS011;9974;52.146;14.668;2023-06-14T12:05:50;2.63;;;1.70;;
19651;SDS011;9974;52.146;14.668;2023-06-14T12:08:35;4.68;;;1.80;;
19651;SDS011;9974;52.146;14.668;2023-06-14T12:11:12;2.95;;;1.90;;
19651;SDS011;9974;52.146;14.668;2023-06-14T12:13:41;4.05;;;1.80;;
19651;SDS011;9974;52.146;14.668;2023-06-14T12:16:11;3.67;;;1.85;;
19651;SDS011;9974;52.146;14.668;2023-06-14T12:18:37;3.80;;;1.83;;
19651;SDS011;9974;52.146;14.668;2023-06-14T12:21:05;4.18;;;1.90;;
19651;SDS011;9974;52.146;14.668;2023-06-14T12:26:18;3.08;;;2.10;;
19651;SDS011;9974;52.146;14.668;2023-06-14T12:28:45;5.75;;;1.73;;
19651;SDS011;9974;52.146;14.668;2023-06-14T12:31:12;3.05;;;1.95;;
19651;SDS011;9974;52.146;14.668;2023-06-14T12:33:40;2.35;;;1.58;;
19651;SDS011;9974;52.146;14.668;2023-06-14T12:36:06;2.85;;;1.58;;
19651;SDS011;9974;52.146;14.668;2023-06-14T12:38:33;2.97;;;1.33;;
19651;SDS011;9974;52.146;14.668;2023-06-14T12:41:00;2.47;;;1.60;;
19651;SDS011;9974;52.146;14.668;2023-06-14T12:43:26;3.08;;;1.83;;
19651;SDS011;9974;52.146;14.668;2023-06-14T12:45:52;4.30;;;1.70;;
19651;SDS011;9974;52.146;14.668;2023-06-14T12:48:18;6.85;;;2.00;;
19651;SDS011;9974;52.146;14.668;2023-06-14T12:50:44;3.38;;;1.60;;
19651;SDS011;9974;52.146;14.668;2023-06-14T12:53:10;5.10;;;1.70;;
19651;SDS011;9974;52.146;14.668;2023-06-14T12:55:35;2.08;;;1.50;;
19651;SDS011;9974;52.146;14.668;2023-06-14T12:58:02;4.35;;;2.10;;
19651;SDS011;9974;52.146;14.668;2023-06-14T13:00:27;5.28;;;1.65;;
19651;SDS011;9974;52.146;14.668;2023-06-14T13:02:55;6.18;;;1.90;;
19651;SDS011;9974;52.146;14.668;2023-06-14T13:05:22;3.50;;;1.65;;
19651;SDS011;9974;52.146;14.668;2023-06-14T13:07:48;2.65;;;1.50;;
19651;SDS011;9974;52.146;14.668;2023-06-14T13:10:13;4.50;;;2.13;;
19651;SDS011;9974;52.146;14.668;2023-06-14T13:12:39;5.32;;;2.03;;
19651;SDS011;9974;52.146;14.668;2023-06-14T13:15:05;4.32;;;1.45;;
19651;SDS011;9974;52.146;14.668;2023-06-14T13:17:32;3.05;;;1.50;;
19651;SDS011;9974;52.146;14.668;2023-06-14T13:20:03;2.97;;;1.70;;
19651;SDS011;9974;52.146;14.668;2023-06-14T13:22:33;2.88;;;1.67;;
19651;SDS011;9974;52.146;14.668;2023-06-14T13:24:59;2.20;;;1.48;;
19651;SDS011;9974;52.146;14.668;2023-06-14T13:27:26;5.72;;;2.25;;
19651;SDS011;9974;52.146;14.668;2023-06-14T13:29:52;6.18;;;2.40;;
19651;SDS011;9974;52.146;14.668;2023-06-14T13:32:20;7.20;;;1.67;;
19651;SDS011;9974;52.146;14.668;2023-06-14T13:34:46;6.65;;;2.88;;
19651;SDS011;9974;52.146;14.668;2023-06-14T13:37:12;3.65;;;1.90;;
19651;SDS011;9974;52.146;14.668;2023-06-14T13:39:38;6.43;;;2.22;;
19651;SDS011;9974;52.146;14.668;2023-06-14T13:42:04;4.50;;;1.92;;
19651;SDS011;9974;52.146;14.668;2023-06-14T13:44:31;4.13;;;1.98;;
19651;SDS011;9974;52.146;14.668;2023-06-14T13:46:56;2.90;;;2.00;;
19651;SDS011;9974;52.146;14.668;2023-06-14T13:49:22;10.95;;;1.90;;
19651;SDS011;9974;52.146;14.668;2023-06-14T13:51:48;3.63;;;1.60;;
19651;SDS011;9974;52.146;14.668;2023-06-14T13:54:14;4.53;;;1.70;;
19651;SDS011;9974;52.146;14.668;2023-06-14T13:56:45;4.43;;;1.77;;
19651;SDS011;9974;52.146;14.668;2023-06-14T13:59:11;3.03;;;2.05;;
19651;SDS011;9974;52.146;14.668;2023-06-14T14:01:37;2.05;;;1.30;;
19651;SDS011;9974;52.146;14.668;2023-06-14T14:04:03;6.05;;;2.33;;
19651;SDS011;9974;52.146;14.668;2023-06-14T14:06:30;2.47;;;1.63;;
19651;SDS011;9974;52.146;14.668;2023-06-14T14:08:56;2.15;;;1.48;;
19651;SDS011;9974;52.146;14.668;2023-06-14T14:11:22;2.33;;;1.25;;
19651;SDS011;9974;52.146;14.668;2023-06-14T14:13:48;2.58;;;1.83;;
19651;SDS011;9974;52.146;14.668;2023-06-14T14:16:14;3.15;;;1.80;;
19651;SDS011;9974;52.146;14.668;2023-06-14T14:18:40;2.20;;;1.33;;
19651;SDS011;9974;52.146;14.668;2023-06-14T14:21:06;3.67;;;2.17;;
19651;SDS011;9974;52.146;14.668;2023-06-14T14:23:32;2.58;;;1.42;;
19651;SDS011;9974;52.146;14.668;2023-06-14T14:25:58;2.70;;;1.58;;
19651;SDS011;9974;52.146;14.668;2023-06-14T14:28:28;2.97;;;1.73;;
19651;SDS011;9974;52.146;14.668;2023-06-14T14:30:54;2.88;;;1.67;;
19651;SDS011;9974;52.146;14.668;2023-06-14T14:33:19;2.92;;;1.95;;
19651;SDS011;9974;52.146;14.668;2023-06-14T14:35:46;4.63;;;2.00;;
19651;SDS011;9974;52.146;14.668;2023-06-14T14:38:12;4.43;;;1.92;;
19651;SDS011;9974;52.146;14.668;2023-06-14T14:40:40;3.10;;;1.90;;
19651;SDS011;9974;52.146;14.668;2023-06-14T14:43:06;2.90;;;1.80;;
19651;SDS011;9974;52.146;14.668;2023-06-14T14:45:32;5.53;;;2.00;;
19651;SDS011;9974;52.146;14.668;2023-06-14T14:47:58;4.70;;;2.60;;
19651;SDS011;9974;52.146;14.668;2023-06-14T14:50:25;9.52;;;1.75;;
19651;SDS011;9974;52.146;14.668;2023-06-14T14:52:51;4.50;;;2.20;;
19651;SDS011;9974;52.146;14.668;2023-06-14T14:55:17;2.63;;;1.75;;
19651;SDS011;9974;52.146;14.668;2023-06-14T14:57:43;4.53;;;1.73;;
19651;SDS011;9974;52.146;14.668;2023-06-14T15:00:11;3.88;;;1.98;;
19651;SDS011;9974;52.146;14.668;2023-06-14T15:02:37;4.07;;;1.80;;
19651;SDS011;9974;52.146;14.668;2023-06-14T15:05:03;3.90;;;1.60;;
19651;SDS011;9974;52.146;14.668;2023-06-14T15:07:30;3.03;;;1.60;;